Time;durP1;ratioP1;P1;durP2;ratioP2;P2;SDS_P1;SDS_P2;PMS_P1;PMS_P2;Temp;Humidity;BMP_temperature;BMP_pressure;BME280_temperature;BME280_humidity;BME280_pressure;Samples;Min_cycle;Max_cycle;Signal;HPM_P1;HPM_P2
2023/04/24 00:02:38;;;;;;;;;;;;;;;;;;;;;
2023/04/24 00:14:34;;;;;;;;;;;;;;;;;;6143422;23;19952;-85
2023/04/24 00:20:11;;;;;;;;;;;;;;;;;;6112029;23;19928;-85
2023/04/24 00:22:52;;;;;;;;;;;;;;;;;;6114960;23;20509;-85
2023/04/24 00:25:24;;;;;;;;;;;;;;;;;;6104656;23;20018;-85
2023/04/24 00:28:18;;;;;;;;;;;;;;;;;;6119015;23;19928;-85
2023/04/24 00:30:53;;;;;;;;;;;;;;;;;;6090082;23;20302;-85
2023/04/24 00:33:24;;;;;;;;;;;;;;;;;;6116180;23;19920;-85
2023/04/24 00:36:22;;;;;;;;;;;;;;;;;;6087154;23;19921;-85
2023/04/24 00:38:57;;;;;;;;;;;;;;;;;;6115794;23;19963;-85
2023/04/24 00:41:33;;;;;;;;;;;;;;;;;;;;;
2023/04/24 00:46:54;;;;;;;;;;;;;;;;;;6223461;22;19926;-85
2023/04/24 00:49:23;;;;;;;;;;;;;;;;;;6208402;22;20325;-85
2023/04/24 00:52:07;;;;;;;;;;;;;;;;;;6236184;22;20482;-85
2023/04/24 00:54:35;;;;;;;;;;;;;;;;;;6210477;22;19954;-85
2023/04/24 00:57:07;;;;;;;;;;;;;;;;;;6206547;22;19945;-85
2023/04/24 00:59:40;;;;;;;;;;;;;;;;;;6263270;22;20359;-85
2023/04/24 01:02:22;;;;;;;;;;;;;;;;;;6231842;22;19926;-85
2023/04/24 01:05:01;;;;;;;;;;;;;;;;;;6236860;22;20281;-85
2023/04/24 01:07:30;;;;;;;;;;;;;;;;;;6204247;22;19930;-85
2023/04/24 01:09:59;;;;;;;;;;;;;;;;;;6233729;22;19923;-85
2023/04/24 01:12:28;;;;;;;;;;;;;;;;;;6210368;22;20280;-85
2023/04/24 01:14:56;;;;;;;;;;;;;;;;;;6208770;22;19919;-85
2023/04/24 01:17:31;;;;;;;;;;;;;;;;;;6207612;22;20294;-85
2023/04/24 01:19:59;;;;;;;;;;;;;;;;;;6205679;22;19926;-85
2023/04/24 01:25:35;;;;;;;;;;;;;;;;;;6235705;22;19919;-85
2023/04/24 01:28:07;;;;;;;;;;;;;;;;;;6209947;22;19919;-85
2023/04/24 01:30:36;;;;;;;;;;;;;;;;;;6211793;22;19915;-85
2023/04/24 01:36:06;;;;;;;;;;;;;;;;;;6234278;22;19919;-85
2023/04/24 01:41:35;;;;;;;;;;;;;;;;;;6237114;22;19922;-85
2023/04/24 01:44:02;;;;;;;;;;;;;;;;;;6210535;22;20290;-85
2023/04/24 01:46:35;;;;;;;;;;;;;;;;;;6235887;22;19919;-85
2023/04/24 01:49:04;;;;;;;;;;;;;;;;;;6208993;22;19923;-84
2023/04/24 01:51:33;;;;;;;;;;;;;;;;;;6208095;22;19921;-85
2023/04/24 01:53:59;;;;;;;;;;;;;;;;;;6205375;22;20034;-85
2023/04/24 01:56:28;;;;;;;;;;;;;;;;;;6231683;22;20282;-85
2023/04/24 01:58:54;;;;;;;;;;;;;;;;;;6208933;22;19919;-85
2023/04/24 02:01:25;;;;;;;;;;;;;;;;;;6207402;22;19919;-85
2023/04/24 02:03:51;;;;;;;;;;;;;;;;;;6232184;22;19957;-85
2023/04/24 02:06:20;;;;;;;;;;;;;;;;;;6231460;22;20691;-85
2023/04/24 02:08:46;;;;;;;;;;;;;;;;;;6207029;22;19923;-85
2023/04/24 02:14:01;;;;;;;;;;;;;;;;;;6205622;22;20328;-85
2023/04/24 02:16:30;;;;;;;;;;;;;;;;;;6205730;22;20171;-85
2023/04/24 02:22:02;;;;;;;;;;;;;;;;;;6230964;22;19968;-85
2023/04/24 02:24:28;;;;;;;;;;;;;;;;;;6209541;22;20001;-86
2023/04/24 02:26:57;;;;;;;;;;;;;;;;;;6235193;22;19951;-85
2023/04/24 02:29:32;;;;;;;;;;;;;;;;;;6213407;22;19922;-85
2023/04/24 02:32:20;;;;;;;;;;;;;;;;;;6238822;22;19956;-85
2023/04/24 02:37:48;;;;;;;;;;;;;;;;;;;;;
2023/04/24 02:43:10;;;;;;;;;;;;;;;;;;6232716;22;20256;-85
2023/04/24 02:45:39;;;;;;;;;;;;;;;;;;6212861;22;19930;-85
2023/04/24 02:51:03;;;;;;;;;;;;;;;;;;6225872;22;19919;-85
2023/04/24 02:53:30;;;;;;;;;;;;;;;;;;6212505;22;19994;-85
2023/04/24 02:56:08;;;;;;;;;;;;;;;;;;6236883;22;19960;-85
2023/04/24 02:58:39;;;;;;;;;;;;;;;;;;6208970;22;20244;-85
2023/04/24 03:01:09;;;;;;;;;;;;;;;;;;6205810;22;19950;-85
2023/04/24 03:03:39;;;;;;;;;;;;;;;;;;6208909;22;20290;-85
2023/04/24 03:06:09;;;;;;;;;;;;;;;;;;6205731;22;19919;-85
2023/04/24 03:08:57;;;;;;;;;;;;;;;;;;6208939;22;19961;-85
2023/04/24 03:11:25;;;;;;;;;;;;;;;;;;6233687;22;19969;-85
2023/04/24 03:13:54;;;;;;;;;;;;;;;;;;6233883;22;19973;-86
2023/04/24 03:16:20;;;;;;;;;;;;;;;;;;6206884;22;19969;-85
2023/04/24 03:18:58;;;;;;;;;;;;;;;;;;6205124;22;19921;-85
2023/04/24 03:21:35;;;;;;;;;;;;;;;;;;6207436;22;19978;-86
2023/04/24 03:24:04;;;;;;;;;;;;;;;;;;6205017;22;20295;-85
2023/04/24 03:26:39;;;;;;;;;;;;;;;;;;6206211;22;19926;-85
2023/04/24 03:29:17;;;;;;;;;;;;;;;;;;6205273;22;20395;-85
2023/04/24 03:31:43;;;;;;;;;;;;;;;;;;6234702;22;19919;-85
2023/04/24 03:34:52;;;;;;;;;;;;;;;;;;6231591;22;19919;-85
2023/04/24 03:37:04;;;;;;;;;;;;;;;;;;6221005;22;20425;-85
2023/04/24 03:39:43;;;;;;;;;;;;;;;;;;6238516;22;20398;-85
2023/04/24 03:42:09;;;;;;;;;;;;;;;;;;6209040;22;19919;-85
2023/04/24 03:44:44;;;;;;;;;;;;;;;;;;6211996;22;20344;-85
2023/04/24 03:47:16;;;;;;;;;;;;;;;;;;6234440;22;20301;-85
2023/04/24 03:49:51;;;;;;;;;;;;;;;;;;6236817;22;20240;-85
2023/04/24 03:52:26;;;;;;;;;;;;;;;;;;6237193;22;19951;-85
2023/04/24 03:58:19;;;;;;;;;;;;;;;;;;6141713;23;19916;-85
2023/04/24 04:03:27;;;;;;;;;;;;;;;;;;6266503;22;20006;-85
2023/04/24 04:05:59;;;;;;;;;;;;;;;;;;6262166;22;19919;-85
2023/04/24 04:11:23;;;;;;;;;;;;;;;;;;6257200;22;20543;-85
2023/04/24 04:16:45;;;;;;;;;;;;;;;;;;6234506;22;19919;-85
2023/04/24 04:19:14;;;;;;;;;;;;;;;;;;6231460;22;20259;-85
2023/04/24 04:21:56;;;;;;;;;;;;;;;;;;;;;
2023/04/24 04:24:47;;;;;;;;;;;;;;;;;;6205408;23;19998;-85
2023/04/24 04:27:26;;;;;;;;;;;;;;;;;;6197047;23;20356;-84
2023/04/24 04:33:24;;;;;;;;;;;;;;;;;;6123886;23;19916;-85
2023/04/24 04:35:56;;;;;;;;;;;;;;;;;;6170399;23;19927;-85
2023/04/24 04:38:26;;;;;;;;;;;;;;;;;;6222753;23;19916;-85
2023/04/24 04:41:02;;;;;;;;;;;;;;;;;;6176066;23;20419;-85
2023/04/24 04:46:53;;;;;;;;;;;;;;;;;;6149122;23;19936;-85
2023/04/24 04:49:34;;;;;;;;;;;;;;;;;;6188644;23;19977;-85
2023/04/24 04:52:03;;;;;;;;;;;;;;;;;;6239589;22;20307;-85
2023/04/24 04:54:43;;;;;;;;;;;;;;;;;;;;;
2023/04/24 04:57:30;;;;;;;;;;;;;;;;;;6261933;22;19926;-85
2023/04/24 05:00:04;;;;;;;;;;;;;;;;;;6236039;22;20029;-85
2023/04/24 05:02:33;;;;;;;;;;;;;;;;;;6262095;22;20514;-85
2023/04/24 05:11:02;;;;;;;;;;;;;;;;;;6258585;22;19918;-85
2023/04/24 05:13:39;;;;;;;;;;;;;;;;;;6240999;22;20400;-85
2023/04/24 05:16:21;;;;;;;;;;;;;;;;;;6241276;22;19934;-85
2023/04/24 05:18:47;;;;;;;;;;;;;;;;;;6240831;22;19977;-85
2023/04/24 05:21:19;;;;;;;;;;;;;;;;;;6235261;22;20199;-85
2023/04/24 05:23:48;;;;;;;;;;;;;;;;;;6236719;22;19946;-85
2023/04/24 05:26:16;;;;;;;;;;;;;;;;;;6235188;22;19926;-85
2023/04/24 05:29:02;;;;;;;;;;;;;;;;;;6290967;22;19930;-85
2023/04/24 05:31:31;;;;;;;;;;;;;;;;;;6236813;22;19915;-85
2023/04/24 05:34:03;;;;;;;;;;;;;;;;;;6235128;22;19919;-85
2023/04/24 05:39:58;;;;;;;;;;;;;;;;;;6204164;23;19919;-85
2023/04/24 05:42:33;;;;;;;;;;;;;;;;;;6146010;23;20391;-85
2023/04/24 05:45:04;;;;;;;;;;;;;;;;;;6144476;23;19931;-85
2023/04/24 05:50:52;;;;;;;;;;;;;;;;;;6128102;23;21348;-84
2023/04/24 05:53:27;;;;;;;;;;;;;;;;;;6149027;23;20259;-84
2023/04/24 05:55:53;;;;;;;;;;;;;;;;;;6144975;23;20472;-85
2023/04/24 05:58:22;;;;;;;;;;;;;;;;;;6248397;22;19923;-86
2023/04/24 06:10:22;;;;;;;;;;;;;;;;;;;;;
2023/04/24 06:31:30;;;;;;;;;;;;;;;;;;6202205;22;20012;-85
2023/04/24 06:34:10;;;;;;;;;;;;;;;;;;6227884;22;20089;-85
2023/04/24 06:36:39;;;;;;;;;;;;;;;;;;6206751;22;20307;-85
2023/04/24 06:39:15;;;;;;;;;;;;;;;;;;6203617;22;19919;-85
2023/04/24 06:41:53;;;;;;;;;;;;;;;;;;6232555;22;19926;-84
2023/04/24 06:44:24;;;;;;;;;;;;;;;;;;6206270;22;20320;-85
2023/04/24 06:46:53;;;;;;;;;;;;;;;;;;6205789;22;19974;-84
2023/04/24 06:49:22;;;;;;;;;;;;;;;;;;6205522;22;19922;-85
2023/04/24 06:51:51;;;;;;;;;;;;;;;;;;6209101;22;20022;-85
2023/04/24 06:54:22;;;;;;;;;;;;;;;;;;6207380;22;20251;-85
2023/04/24 06:56:51;;;;;;;;;;;;;;;;;;6208708;22;19915;-85
2023/04/24 06:59:19;;;;;;;;;;;;;;;;;;6207001;22;19950;-85
2023/04/24 07:01:45;;;;;;;;;;;;;;;;;;6206824;22;19970;-85
2023/04/24 07:04:30;;;;;;;;;;;;;;;;;;;;;
2023/04/24 07:07:06;;;;;;;;;;;;;;;;;;6233857;22;19919;-85
2023/04/24 07:09:43;;;;;;;;;;;;;;;;;;6216560;22;20366;-85
2023/04/24 07:12:13;;;;;;;;;;;;;;;;;;6212626;22;19926;-85
2023/04/24 07:17:31;;;;;;;;;;;;;;;;;;6221217;22;19919;-85
2023/04/24 07:19:57;;;;;;;;;;;;;;;;;;6235487;22;20240;-85
2023/04/24 07:22:23;;;;;;;;;;;;;;;;;;6207577;22;20312;-85
2023/04/24 07:25:25;;;;;;;;;;;;;;;;;;6210596;22;20017;-86
2023/04/24 07:27:50;;;;;;;;;;;;;;;;;;6230805;22;20018;-85
2023/04/24 07:30:25;;;;;;;;;;;;;;;;;;6208632;22;20240;-85
2023/04/24 07:33:00;;;;;;;;;;;;;;;;;;6208587;22;19943;-85
2023/04/24 07:35:26;;;;;;;;;;;;;;;;;;6203258;22;19950;-85
2023/04/24 07:38:01;;;;;;;;;;;;;;;;;;6212238;22;20243;-85
2023/04/24 07:40:36;;;;;;;;;;;;;;;;;;6208158;22;19919;-85
2023/04/24 07:43:08;;;;;;;;;;;;;;;;;;6207904;22;20278;-85
2023/04/24 07:45:40;;;;;;;;;;;;;;;;;;6211037;22;19919;-85
2023/04/24 07:48:06;;;;;;;;;;;;;;;;;;6204647;22;19919;-85
2023/04/24 07:50:34;;;;;;;;;;;;;;;;;;6232475;22;20102;-85
2023/04/24 07:53:00;;;;;;;;;;;;;;;;;;6200462;22;20283;-85
2023/04/24 07:55:26;;;;;;;;;;;;;;;;;;6231245;22;19919;-85
2023/04/24 07:58:00;;;;;;;;;;;;;;;;;;6208146;22;20236;-86
2023/04/24 08:00:28;;;;;;;;;;;;;;;;;;6234279;22;20329;-85
2023/04/24 08:03:02;;;;;;;;;;;;;;;;;;6206298;22;19925;-85
2023/04/24 08:05:45;;;;;;;;;;;;;;;;;;6233760;22;19919;-85
2023/04/24 08:08:11;;;;;;;;;;;;;;;;;;6203719;22;19957;-84
2023/04/24 08:10:37;;;;;;;;;;;;;;;;;;6206753;22;19919;-85
2023/04/24 08:13:11;;;;;;;;;;;;;;;;;;6206912;22;19919;-85
2023/04/24 08:15:39;;;;;;;;;;;;;;;;;;6205779;22;20291;-85
2023/04/24 08:18:15;;;;;;;;;;;;;;;;;;6205689;22;19922;-84
2023/04/24 08:20:47;;;;;;;;;;;;;;;;;;6208260;22;19919;-85
2023/04/24 08:23:34;;;;;;;;;;;;;;;;;;6205381;22;19986;-85
2023/04/24 08:26:05;;;;;;;;;;;;;;;;;;6229204;22;20310;-86
2023/04/24 08:31:32;;;;;;;;;;;;;;;;;;6078718;23;19968;-85
2023/04/24 08:34:00;;;;;;;;;;;;;;;;;;6134848;23;19994;-86
2023/04/24 08:36:46;;;;;;;;;;;;;;;;;;6171885;23;19943;-84
2023/04/24 08:39:22;;;;;;;;;;;;;;;;;;6145909;23;19920;-85
2023/04/24 08:41:51;;;;;;;;;;;;;;;;;;6149248;23;19998;-85
2023/04/24 08:44:17;;;;;;;;;;;;;;;;;;6193533;23;19954;-84
2023/04/24 08:46:49;;;;;;;;;;;;;;;;;;6149517;23;19926;-84
2023/04/24 08:49:18;;;;;;;;;;;;;;;;;;6147267;23;20006;-84
2023/04/24 08:51:44;;;;;;;;;;;;;;;;;;6199120;23;19962;-84
2023/04/24 08:54:10;;;;;;;;;;;;;;;;;;6172165;23;19990;-84
2023/04/24 08:56:44;;;;;;;;;;;;;;;;;;6198614;23;19919;-84
2023/04/24 08:59:10;;;;;;;;;;;;;;;;;;6165906;22;20323;-84
2023/04/24 09:01:36;;;;;;;;;;;;;;;;;;6233145;22;20251;-85
2023/04/24 09:04:05;;;;;;;;;;;;;;;;;;6208657;22;20045;-85
2023/04/24 09:06:31;;;;;;;;;;;;;;;;;;6242296;22;19930;-85
2023/04/24 09:08:57;;;;;;;;;;;;;;;;;;6213138;22;19950;-85
2023/04/24 09:11:24;;;;;;;;;;;;;;;;;;6215307;22;20276;-85
2023/04/24 09:13:50;;;;;;;;;;;;;;;;;;6215899;22;19919;-85
2023/04/24 09:16:24;;;;;;;;;;;;;;;;;;6238950;22;20235;-85
2023/04/24 09:18:53;;;;;;;;;;;;;;;;;;6205666;23;19969;-85
2023/04/24 09:21:23;;;;;;;;;;;;;;;;;;6174711;23;19920;-85
2023/04/24 09:23:49;;;;;;;;;;;;;;;;;;6176200;23;19915;-84
2023/04/24 09:26:15;;;;;;;;;;;;;;;;;;6179362;23;19920;-84
2023/04/24 09:28:41;;;;;;;;;;;;;;;;;;6203339;23;19924;-84
2023/04/24 09:31:12;;;;;;;;;;;;;;;;;;6206780;23;19919;-84
2023/04/24 09:33:38;;;;;;;;;;;;;;;;;;6207347;23;20416;-84
2023/04/24 09:36:05;;;;;;;;;;;;;;;;;;6203568;23;19919;-84
2023/04/24 09:41:10;;;;;;;;;;;;;;;;;;6265414;22;20315;-84
2023/04/24 09:43:36;;;;;;;;;;;;;;;;;;6210938;22;20345;-83
2023/04/24 09:46:02;;;;;;;;;;;;;;;;;;6232244;22;19919;-83
2023/04/24 09:48:28;;;;;;;;;;;;;;;;;;6235042;22;19930;-84
2023/04/24 09:50:54;;;;;;;;;;;;;;;;;;6204138;22;19951;-84
2023/04/24 09:53:20;;;;;;;;;;;;;;;;;;6231571;22;20030;-85
2023/04/24 09:55:50;;;;;;;;;;;;;;;;;;6232807;22;20359;-85
2023/04/24 09:58:26;;;;;;;;;;;;;;;;;;6232935;22;19919;-85
2023/04/24 10:00:52;;;;;;;;;;;;;;;;;;6233534;22;19926;-84
2023/04/24 10:03:18;;;;;;;;;;;;;;;;;;6209180;22;19919;-85
2023/04/24 10:05:44;;;;;;;;;;;;;;;;;;6207640;22;19972;-84
2023/04/24 10:08:15;;;;;;;;;;;;;;;;;;6206820;22;20022;-84
2023/04/24 10:10:41;;;;;;;;;;;;;;;;;;6209394;22;19925;-84
2023/04/24 10:13:10;;;;;;;;;;;;;;;;;;6229511;22;19965;-85
2023/04/24 10:15:36;;;;;;;;;;;;;;;;;;6208037;22;19930;-85
2023/04/24 10:18:03;;;;;;;;;;;;;;;;;;6207172;22;20315;-85
2023/04/24 10:20:40;;;;;;;;;;;;;;;;;;6234898;22;19915;-84
2023/04/24 10:23:09;;;;;;;;;;;;;;;;;;6208442;22;20358;-84
2023/04/24 10:25:35;;;;;;;;;;;;;;;;;;6211012;22;19919;-84
2023/04/24 10:28:01;;;;;;;;;;;;;;;;;;6206188;22;20357;-84
2023/04/24 10:30:27;;;;;;;;;;;;;;;;;;6207622;22;20329;-85
2023/04/24 10:32:55;;;;;;;;;;;;;;;;;;6208169;22;20260;-85
2023/04/24 10:38:28;;;;;;;;;;;;;;;;;;6258053;22;19919;-84
2023/04/24 10:40:57;;;;;;;;;;;;;;;;;;6210245;22;20363;-84
2023/04/24 10:43:26;;;;;;;;;;;;;;;;;;6232119;22;20010;-84
2023/04/24 10:45:58;;;;;;;;;;;;;;;;;;6265676;22;19929;-85
2023/04/24 10:48:24;;;;;;;;;;;;;;;;;;6269336;22;19923;-83
2023/04/24 10:50:50;;;;;;;;;;;;;;;;;;6266946;22;19926;-83
2023/04/24 10:53:16;;;;;;;;;;;;;;;;;;6266178;22;20313;-84
2023/04/24 10:55:43;;;;;;;;;;;;;;;;;;6267448;22;19984;-84
2023/04/24 10:58:09;;;;;;;;;;;;;;;;;;6241527;22;19929;-84
2023/04/24 11:00:35;;;;;;;;;;;;;;;;;;6267248;22;19919;-84
2023/04/24 11:03:01;;;;;;;;;;;;;;;;;;6240588;22;20358;-83
2023/04/24 11:05:27;;;;;;;;;;;;;;;;;;6242100;22;19922;-83
2023/04/24 11:08:00;;;;;;;;;;;;;;;;;;6245944;22;20243;-84
2023/04/24 11:10:26;;;;;;;;;;;;;;;;;;6244185;22;20389;-84
2023/04/24 11:12:52;;;;;;;;;;;;;;;;;;6271491;22;20258;-85
2023/04/24 11:15:19;;;;;;;;;;;;;;;;;;6266359;22;19922;-85
2023/04/24 11:17:45;;;;;;;;;;;;;;;;;;6272158;22;20280;-85
2023/04/24 11:20:11;;;;;;;;;;;;;;;;;;6241611;22;20024;-85
2023/04/24 11:22:39;;;;;;;;;;;;;;;;;;6244200;22;19925;-85
2023/04/24 11:25:07;;;;;;;;;;;;;;;;;;6240260;22;19946;-85
2023/04/24 11:27:36;;;;;;;;;;;;;;;;;;6243192;22;19923;-84
2023/04/24 11:30:03;;;;;;;;;;;;;;;;;;6241314;22;20409;-85
2023/04/24 11:32:31;;;;;;;;;;;;;;;;;;6246949;22;19918;-85
2023/04/24 11:35:03;;;;;;;;;;;;;;;;;;6240550;22;20252;-85
2023/04/24 11:37:36;;;;;;;;;;;;;;;;;;6261732;22;20037;-84
2023/04/24 11:40:07;;;;;;;;;;;;;;;;;;6264128;22;19918;-85
2023/04/24 11:45:20;;;;;;;;;;;;;;;;;;6262131;22;19976;-85
2023/04/24 11:48:06;;;;;;;;;;;;;;;;;;6240966;22;19946;-85
2023/04/24 11:50:37;;;;;;;;;;;;;;;;;;6267051;22;19964;-85
2023/04/24 11:53:09;;;;;;;;;;;;;;;;;;6261306;22;19953;-85
2023/04/24 11:55:42;;;;;;;;;;;;;;;;;;6267372;22;19919;-85
2023/04/24 11:58:08;;;;;;;;;;;;;;;;;;6240140;22;20350;-85
2023/04/24 12:00:34;;;;;;;;;;;;;;;;;;6265959;22;19918;-85
2023/04/24 12:06:10;;;;;;;;;;;;;;;;;;6169137;23;20050;-87
2023/04/24 12:09:08;;;;;;;;;;;;;;;;;;;;;
2023/04/24 12:12:01;;;;;;;;;;;;;;;;;;6285166;22;19926;-86
2023/04/24 12:14:39;;;;;;;;;;;;;;;;;;6238891;22;19922;-86
2023/04/24 12:17:08;;;;;;;;;;;;;;;;;;6234303;22;19919;-85
2023/04/24 12:26:05;;;;;;;;;;;;;;;;;;6199399;23;20031;-84
2023/04/24 12:31:39;;;;;;;;;;;;;;;;;;6189415;23;20385;-86
2023/04/24 12:34:31;;;;;;;;;;;;;;;;;;6199145;23;19919;-86
2023/04/24 12:37:09;;;;;;;;;;;;;;;;;;6202513;23;19919;-86
2023/04/24 12:42:58;;;;;;;;;;;;;;;;;;6235838;23;19965;-87
2023/04/24 12:45:33;;;;;;;;;;;;;;;;;;6140127;23;20316;-86
2023/04/24 12:48:21;;;;;;;;;;;;;;;;;;;;;
2023/04/24 12:54:11;;;;;;;;;;;;;;;;;;;;;
2023/04/24 12:56:57;;;;;;;;;;;;;;;;;;6162733;23;20289;-86
2023/04/24 12:59:32;;;;;;;;;;;;;;;;;;6142729;23;19927;-86
2023/04/24 13:02:04;;;;;;;;;;;;;;;;;;6158689;23;19921;-86
2023/04/24 13:04:35;;;;;;;;;;;;;;;;;;6138200;23;19942;-85
2023/04/24 13:07:10;;;;;;;;;;;;;;;;;;6136066;23;20271;-86
2023/04/24 13:09:59;;;;;;;;;;;;;;;;;;6146178;23;19931;-86
2023/04/24 13:12:36;;;;;;;;;;;;;;;;;;6116492;23;19952;-87
2023/04/24 13:15:15;;;;;;;;;;;;;;;;;;;;;
2023/04/24 13:17:41;;;;;;;;;;;;;;;;;;6206049;23;19997;-86
2023/04/24 13:20:10;;;;;;;;;;;;;;;;;;6200075;23;19926;-86
2023/04/24 13:22:42;;;;;;;;;;;;;;;;;;6200888;23;19926;-86
2023/04/24 13:25:18;;;;;;;;;;;;;;;;;;6198293;22;20466;-86
2023/04/24 13:27:58;;;;;;;;;;;;;;;;;;6242642;22;19962;-86
2023/04/24 13:30:30;;;;;;;;;;;;;;;;;;6240073;22;19923;-86
2023/04/24 13:36:03;;;;;;;;;;;;;;;;;;6255353;22;19994;-86
2023/04/24 13:38:54;;;;;;;;;;;;;;;;;;;;;
2023/04/24 13:41:33;;;;;;;;;;;;;;;;;;6257360;22;20707;-85
2023/04/24 13:47:01;;;;;;;;;;;;;;;;;;6232548;22;19919;-85
2023/04/24 13:52:54;;;;;;;;;;;;;;;;;;6139022;23;20745;-85
2023/04/24 13:55:39;;;;;;;;;;;;;;;;;;;;;
2023/04/24 13:58:16;;;;;;;;;;;;;;;;;;6172693;23;19919;-85
2023/04/24 14:06:37;;;;;;;;;;;;;;;;;;6182313;23;19916;-85
2023/04/24 14:09:03;;;;;;;;;;;;;;;;;;6145229;23;20349;-84
2023/04/24 14:11:34;;;;;;;;;;;;;;;;;;6171139;23;19955;-85
2023/04/24 14:14:31;;;;;;;;;;;;;;;;;;;;;
2023/04/24 14:17:15;;;;;;;;;;;;;;;;;;;;;
2023/04/24 14:20:01;;;;;;;;;;;;;;;;;;;;;
2023/04/24 14:29:03;;;;;;;;;;;;;;;;;;;;;
2023/04/24 14:34:26;;;;;;;;;;;;;;;;;;6109076;23;19921;-85
2023/04/24 14:37:02;;;;;;;;;;;;;;;;;;6060731;23;20315;-85
2023/04/24 14:42:33;;;;;;;;;;;;;;;;;;;;;
2023/04/24 14:48:00;;;;;;;;;;;;;;;;;;6262045;22;19922;-84
2023/04/24 14:50:37;;;;;;;;;;;;;;;;;;6289409;22;19953;-84
2023/04/24 14:53:16;;;;;;;;;;;;;;;;;;6269552;22;19922;-84
2023/04/24 14:55:47;;;;;;;;;;;;;;;;;;6241854;22;20249;-83
2023/04/24 14:58:34;;;;;;;;;;;;;;;;;;6262830;22;19919;-84
2023/04/24 15:01:09;;;;;;;;;;;;;;;;;;6263965;22;19926;-83
2023/04/24 15:06:53;;;;;;;;;;;;;;;;;;6255792;22;19918;-84
2023/04/24 15:09:25;;;;;;;;;;;;;;;;;;6243809;22;19923;-85
2023/04/24 15:11:51;;;;;;;;;;;;;;;;;;6266296;22;19922;-84
2023/04/24 15:19:59;;;;;;;;;;;;;;;;;;6167202;22;19919;-85
2023/04/24 15:22:25;;;;;;;;;;;;;;;;;;6219358;23;19923;-84
2023/04/24 15:24:51;;;;;;;;;;;;;;;;;;6205828;23;19970;-84
2023/04/24 15:27:17;;;;;;;;;;;;;;;;;;6203023;23;19919;-84
2023/04/24 15:29:48;;;;;;;;;;;;;;;;;;6207064;23;19923;-84
2023/04/24 15:32:14;;;;;;;;;;;;;;;;;;6206505;23;19919;-84
2023/04/24 15:34:40;;;;;;;;;;;;;;;;;;6209328;23;19915;-84
2023/04/24 15:37:08;;;;;;;;;;;;;;;;;;6202092;23;19970;-84
2023/04/24 15:39:35;;;;;;;;;;;;;;;;;;6206437;23;19951;-84
2023/04/24 15:42:01;;;;;;;;;;;;;;;;;;6170173;23;19921;-85
2023/04/24 15:45:06;;;;;;;;;;;;;;;;;;6178032;23;19924;-85
2023/04/24 15:47:23;;;;;;;;;;;;;;;;;;6207222;23;19938;-85
2023/04/24 15:50:25;;;;;;;;;;;;;;;;;;6207329;23;20510;-84
2023/04/24 15:52:53;;;;;;;;;;;;;;;;;;6210075;23;19950;-85
2023/04/24 15:55:24;;;;;;;;;;;;;;;;;;6210040;23;19916;-85
2023/04/24 15:57:50;;;;;;;;;;;;;;;;;;6183746;23;19919;-84
2023/04/24 16:00:17;;;;;;;;;;;;;;;;;;6176887;23;19950;-85
2023/04/24 16:02:46;;;;;;;;;;;;;;;;;;6205288;23;19919;-85
2023/04/24 16:05:33;;;;;;;;;;;;;;;;;;6204125;23;19923;-84
2023/04/24 16:08:05;;;;;;;;;;;;;;;;;;6206215;23;20397;-85
2023/04/24 16:13:27;;;;;;;;;;;;;;;;;;6202325;23;19919;-85
2023/04/24 16:15:59;;;;;;;;;;;;;;;;;;6182690;23;20245;-85
2023/04/24 16:33:10;;;;;;;;;;;;;;;;;;6168868;23;19920;-84
2023/04/24 16:35:36;;;;;;;;;;;;;;;;;;6120062;23;19920;-85
2023/04/24 16:38:03;;;;;;;;;;;;;;;;;;6142884;23;19995;-84
2023/04/24 16:40:31;;;;;;;;;;;;;;;;;;6144890;23;19920;-85
2023/04/24 16:42:57;;;;;;;;;;;;;;;;;;6117959;23;19924;-85
2023/04/24 16:48:28;;;;;;;;;;;;;;;;;;6147647;23;19924;-86
2023/04/24 16:51:24;;;;;;;;;;;;;;;;;;6142020;23;19927;-84
2023/04/24 16:53:59;;;;;;;;;;;;;;;;;;6140954;23;19951;-85
2023/04/24 17:03:53;;;;;;;;;;;;;;;;;;6244436;23;19914;-86
2023/04/24 17:06:00;;;;;;;;;;;;;;;;;;6117669;23;19921;-85
2023/04/24 17:08:36;;;;;;;;;;;;;;;;;;6088935;23;20274;-86
2023/04/24 17:18:04;;;;;;;;;;;;;;;;;;5976452;24;19992;-87
2023/04/24 17:26:50;;;;;;;;;;;;;;;;;;5948906;24;20036;-85
2023/04/24 17:29:25;;;;;;;;;;;;;;;;;;5951949;23;19929;-85
2023/04/24 17:32:04;;;;;;;;;;;;;;;;;;;;;
2023/04/24 17:34:51;;;;;;;;;;;;;;;;;;6003032;23;20260;-85
2023/04/24 17:37:26;;;;;;;;;;;;;;;;;;6036821;23;19928;-86
2023/04/24 17:39:59;;;;;;;;;;;;;;;;;;6032455;23;19918;-86
2023/04/24 17:45:39;;;;;;;;;;;;;;;;;;;;;
2023/04/24 17:48:10;;;;;;;;;;;;;;;;;;6086626;23;20355;-85
2023/04/24 17:50:38;;;;;;;;;;;;;;;;;;6150582;23;19958;-85
2023/04/24 17:53:12;;;;;;;;;;;;;;;;;;6206291;23;19926;-85
2023/04/24 17:55:38;;;;;;;;;;;;;;;;;;6184473;23;19926;-85
2023/04/24 17:58:04;;;;;;;;;;;;;;;;;;6205244;23;19920;-85
2023/04/24 18:00:33;;;;;;;;;;;;;;;;;;6183417;23;20249;-85
2023/04/24 18:02:59;;;;;;;;;;;;;;;;;;6181893;23;20358;-85
2023/04/24 18:05:34;;;;;;;;;;;;;;;;;;6235865;23;20549;-85
2023/04/24 18:08:00;;;;;;;;;;;;;;;;;;6180367;23;20002;-85
2023/04/24 18:13:12;;;;;;;;;;;;;;;;;;6191982;23;19982;-86
2023/04/24 18:18:25;;;;;;;;;;;;;;;;;;6192215;23;19949;-85
2023/04/24 18:20:54;;;;;;;;;;;;;;;;;;6153370;23;20430;-85
2023/04/24 18:23:20;;;;;;;;;;;;;;;;;;6175108;23;19916;-85
2023/04/24 18:25:46;;;;;;;;;;;;;;;;;;6154269;23;19920;-85
2023/04/24 18:28:12;;;;;;;;;;;;;;;;;;6176177;23;19920;-85
2023/04/24 18:33:33;;;;;;;;;;;;;;;;;;6168055;23;19920;-85
2023/04/24 18:35:59;;;;;;;;;;;;;;;;;;6175182;23;19920;-85
2023/04/24 18:41:20;;;;;;;;;;;;;;;;;;6126580;23;19919;-85
2023/04/24 18:43:46;;;;;;;;;;;;;;;;;;6201988;22;19923;-85
2023/04/24 18:46:18;;;;;;;;;;;;;;;;;;6212295;22;20335;-85
2023/04/24 18:51:39;;;;;;;;;;;;;;;;;;6225458;22;19915;-85
2023/04/24 18:54:05;;;;;;;;;;;;;;;;;;6210102;22;19919;-85
2023/04/24 19:15:42;;;;;;;;;;;;;;;;;;6258969;22;20375;-84
2023/04/24 19:18:17;;;;;;;;;;;;;;;;;;6210478;22;20268;-85
2023/04/24 19:20:49;;;;;;;;;;;;;;;;;;6209707;22;19992;-84
2023/04/24 19:23:15;;;;;;;;;;;;;;;;;;6210076;22;20293;-85
2023/04/24 19:25:50;;;;;;;;;;;;;;;;;;6238153;22;19919;-85
2023/04/24 19:28:29;;;;;;;;;;;;;;;;;;6204679;22;19927;-84
2023/04/24 19:34:08;;;;;;;;;;;;;;;;;;6200513;22;19951;-85
2023/04/24 19:39:33;;;;;;;;;;;;;;;;;;6225321;22;19919;-84
2023/04/24 19:42:22;;;;;;;;;;;;;;;;;;;;;
2023/04/24 19:45:06;;;;;;;;;;;;;;;;;;6236201;22;19955;-84
2023/04/24 19:47:53;;;;;;;;;;;;;;;;;;6242291;22;19916;-84
2023/04/24 19:53:42;;;;;;;;;;;;;;;;;;6110589;23;19921;-84
2023/04/24 19:56:08;;;;;;;;;;;;;;;;;;6154390;22;20313;-84
2023/04/24 19:59:07;;;;;;;;;;;;;;;;;;6215290;22;19922;-84
2023/04/24 20:01:45;;;;;;;;;;;;;;;;;;6236878;22;19965;-85
2023/04/24 20:04:21;;;;;;;;;;;;;;;;;;6235070;22;19958;-84
2023/04/24 20:07:12;;;;;;;;;;;;;;;;;;;;;
2023/04/24 20:12:44;;;;;;;;;;;;;;;;;;6140103;23;19966;-84
2023/04/24 20:15:32;;;;;;;;;;;;;;;;;;6117096;23;20018;-85
2023/04/24 20:18:22;;;;;;;;;;;;;;;;;;6144917;23;19920;-84
2023/04/24 20:20:56;;;;;;;;;;;;;;;;;;6121280;23;19982;-85
2023/04/24 20:23:25;;;;;;;;;;;;;;;;;;6118035;23;19974;-85
2023/04/24 20:26:15;;;;;;;;;;;;;;;;;;6145680;23;20253;-85
2023/04/24 20:32:13;;;;;;;;;;;;;;;;;;6177620;23;20353;-85
2023/04/24 20:38:02;;;;;;;;;;;;;;;;;;6126730;23;20028;-85
2023/04/24 20:40:41;;;;;;;;;;;;;;;;;;6123209;23;19927;-84
2023/04/24 20:43:25;;;;;;;;;;;;;;;;;;6145422;23;20680;-85
2023/04/24 20:46:13;;;;;;;;;;;;;;;;;;6142572;23;19920;-85
2023/04/24 20:51:33;;;;;;;;;;;;;;;;;;6205026;23;19939;-85
2023/04/24 20:54:26;;;;;;;;;;;;;;;;;;6172825;23;19943;-85
2023/04/24 20:59:44;;;;;;;;;;;;;;;;;;6194097;23;20244;-85
2023/04/24 21:02:13;;;;;;;;;;;;;;;;;;6173892;23;19926;-85
2023/04/24 21:07:40;;;;;;;;;;;;;;;;;;6149327;23;19920;-85
2023/04/24 21:10:20;;;;;;;;;;;;;;;;;;6111442;23;19983;-85
2023/04/24 21:12:53;;;;;;;;;;;;;;;;;;6120306;23;20349;-85
2023/04/24 21:18:08;;;;;;;;;;;;;;;;;;6189136;23;19950;-86
2023/04/24 21:20:34;;;;;;;;;;;;;;;;;;6168599;23;20292;-84
2023/04/24 21:23:00;;;;;;;;;;;;;;;;;;6164944;23;19930;-84
2023/04/24 21:25:47;;;;;;;;;;;;;;;;;;6166709;23;19931;-84
2023/04/24 21:28:25;;;;;;;;;;;;;;;;;;6192292;23;19924;-84
2023/04/24 21:31:03;;;;;;;;;;;;;;;;;;6168112;23;20319;-84
2023/04/24 21:33:29;;;;;;;;;;;;;;;;;;6166432;23;20359;-84
2023/04/24 21:36:01;;;;;;;;;;;;;;;;;;6166298;23;19919;-84
2023/04/24 21:38:27;;;;;;;;;;;;;;;;;;6195357;22;19916;-84
2023/04/24 21:41:02;;;;;;;;;;;;;;;;;;6265810;22;19989;-84
2023/04/24 21:43:47;;;;;;;;;;;;;;;;;;;;;
2023/04/24 21:46:21;;;;;;;;;;;;;;;;;;6227722;22;19919;-83
2023/04/24 21:48:47;;;;;;;;;;;;;;;;;;6203690;22;20378;-84
2023/04/24 21:51:15;;;;;;;;;;;;;;;;;;6201877;22;20381;-83
2023/04/24 21:53:41;;;;;;;;;;;;;;;;;;6229439;22;19919;-84
2023/04/24 21:58:53;;;;;;;;;;;;;;;;;;6209027;22;19919;-83
2023/04/24 22:01:19;;;;;;;;;;;;;;;;;;6202505;22;19997;-84
2023/04/24 22:03:53;;;;;;;;;;;;;;;;;;6204845;22;20319;-83
2023/04/24 22:06:24;;;;;;;;;;;;;;;;;;6204418;22;20268;-83
2023/04/24 22:08:56;;;;;;;;;;;;;;;;;;6210660;22;19927;-83
2023/04/24 22:14:11;;;;;;;;;;;;;;;;;;6217396;22;19958;-84
2023/04/24 22:16:40;;;;;;;;;;;;;;;;;;6236093;22;19972;-83
2023/04/24 22:19:06;;;;;;;;;;;;;;;;;;6207440;22;20010;-84
2023/04/24 22:21:37;;;;;;;;;;;;;;;;;;6212321;22;19919;-84